sensor_id;sensor_type;location;lat;lon;timestamp;pressure;altitude;pressure_sealevel;temperature;humidity
10460;BME280;54412;51.206;6.888;2023-07-31T00:01:32;100454.72;;;17.91;100.00
10460;BME280;54412;51.206;6.888;2023-07-31T00:03:57;100461.94;;;18.00;100.00
10460;BME280;54412;51.206;6.888;2023-07-31T00:06:23;100462.28;;;18.06;99.78
10460;BME280;54412;51.206;6.888;2023-07-31T00:08:49;100455.72;;;18.10;98.90
10460;BME280;54412;51.206;6.888;2023-07-31T00:11:14;100457.47;;;18.00;99.73
10460;BME280;54412;51.206;6.888;2023-07-31T00:13:40;100464.78;;;17.87;100.00
10460;BME280;54412;51.206;6.888;2023-07-31T00:16:06;100456.31;;;17.82;99.57
10460;BME280;54412;51.206;6.888;2023-07-31T00:18:31;100466.28;;;17.80;100.00
10460;BME280;54412;51.206;6.888;2023-07-31T00:20:57;100469.13;;;17.88;100.00
10460;BME280;54412;51.206;6.888;2023-07-31T00:23:23;100454.41;;;18.05;99.80
10460;BME280;54412;51.206;6.888;2023-07-31T00:25:48;100456.28;;;17.93;99.47
10460;BME280;54412;51.206;6.888;2023-07-31T00:28:14;100452.38;;;17.97;99.10
10460;BME280;54412;51.206;6.888;2023-07-31T00:30:40;100454.38;;;17.84;98.79
10460;BME280;54412;51.206;6.888;2023-07-31T00:33:05;100450.56;;;17.98;99.16
10460;BME280;54412;51.206;6.888;2023-07-31T00:35:31;100452.09;;;18.11;97.85
10460;BME280;54412;51.206;6.888;2023-07-31T00:37:58;100469.09;;;17.99;98.23
10460;BME280;54412;51.206;6.888;2023-07-31T00:40:24;100453.34;;;17.96;97.92
10460;BME280;54412;51.206;6.888;2023-07-31T00:42:50;100444.13;;;18.00;98.02
10460;BME280;54412;51.206;6.888;2023-07-31T00:45:15;100453.41;;;17.85;99.40
10460;BME280;54412;51.206;6.888;2023-07-31T00:47:41;100460.72;;;18.04;98.42
10460;BME280;54412;51.206;6.888;2023-07-31T00:50:07;100444.91;;;18.12;97.24
10460;BME280;54412;51.206;6.888;2023-07-31T00:52:33;100451.94;;;18.13;96.48
10460;BME280;54412;51.206;6.888;2023-07-31T00:54:59;100454.34;;;17.95;96.11
10460;BME280;54412;51.206;6.888;2023-07-31T00:57:25;100445.16;;;18.09;96.16
10460;BME280;54412;51.206;6.888;2023-07-31T00:59:51;100457.88;;;18.16;95.15
10460;BME280;54412;51.206;6.888;2023-07-31T01:02:17;100446.66;;;18.02;95.12
10460;BME280;54412;51.206;6.888;2023-07-31T01:04:43;100440.69;;;18.09;95.21
10460;BME280;54412;51.206;6.888;2023-07-31T01:07:32;100430.84;;;18.10;94.52
10460;BME280;54412;51.206;6.888;2023-07-31T01:10:09;100439.09;;;18.07;94.16
10460;BME280;54412;51.206;6.888;2023-07-31T01:12:38;100437.06;;;17.99;95.71
10460;BME280;54412;51.206;6.888;2023-07-31T01:15:06;100431.25;;;18.05;94.74
10460;BME280;54412;51.206;6.888;2023-07-31T01:17:32;100433.81;;;17.96;94.47
10460;BME280;54412;51.206;6.888;2023-07-31T01:20:02;100442.13;;;18.13;94.37
10460;BME280;54412;51.206;6.888;2023-07-31T01:25:56;100434.16;;;18.02;93.65
10460;BME280;54412;51.206;6.888;2023-07-31T01:28:56;100440.28;;;17.93;93.63
10460;BME280;54412;51.206;6.888;2023-07-31T01:31:26;100426.53;;;17.98;93.56
10460;BME280;54412;51.206;6.888;2023-07-31T01:34:00;100425.94;;;17.94;92.74
10460;BME280;54412;51.206;6.888;2023-07-31T01:36:26;100432.22;;;18.04;93.49
10460;BME280;54412;51.206;6.888;2023-07-31T01:38:57;100435.34;;;18.09;93.03
10460;BME280;54412;51.206;6.888;2023-07-31T01:41:23;100431.72;;;18.31;91.21
10460;BME280;54412;51.206;6.888;2023-07-31T01:43:49;100433.13;;;18.14;91.02
10460;BME280;54412;51.206;6.888;2023-07-31T01:46:15;100433.91;;;18.05;91.64
10460;BME280;54412;51.206;6.888;2023-07-31T01:48:40;100434.38;;;18.10;90.93
10460;BME280;54412;51.206;6.888;2023-07-31T01:51:06;100434.31;;;18.01;89.17
10460;BME280;54412;51.206;6.888;2023-07-31T01:53:32;100431.97;;;18.07;90.18
10460;BME280;54412;51.206;6.888;2023-07-31T01:55:58;100421.66;;;18.03;90.19
10460;BME280;54412;51.206;6.888;2023-07-31T01:58:23;100431.25;;;18.05;89.51
10460;BME280;54412;51.206;6.888;2023-07-31T02:00:49;100433.59;;;18.19;89.70
10460;BME280;54412;51.206;6.888;2023-07-31T02:03:15;100432.03;;;18.17;89.63
10460;BME280;54412;51.206;6.888;2023-07-31T02:05:48;100436.72;;;18.04;89.57
10460;BME280;54412;51.206;6.888;2023-07-31T02:08:15;100425.25;;;18.13;90.05
10460;BME280;54412;51.206;6.888;2023-07-31T02:10:41;100419.91;;;18.13;89.68
10460;BME280;54412;51.206;6.888;2023-07-31T02:13:07;100411.69;;;18.05;89.39
10460;BME280;54412;51.206;6.888;2023-07-31T02:15:33;100409.97;;;18.15;89.40
10460;BME280;54412;51.206;6.888;2023-07-31T02:17:59;100419.53;;;18.17;89.38
10460;BME280;54412;51.206;6.888;2023-07-31T02:20:25;100416.53;;;18.11;89.14
10460;BME280;54412;51.206;6.888;2023-07-31T02:22:51;100411.69;;;18.05;88.61
10460;BME280;54412;51.206;6.888;2023-07-31T02:25:17;100411.19;;;18.11;89.58
10460;BME280;54412;51.206;6.888;2023-07-31T02:27:42;100413.22;;;18.18;88.98
10460;BME280;54412;51.206;6.888;2023-07-31T02:30:09;100403.50;;;17.97;90.22
10460;BME280;54412;51.206;6.888;2023-07-31T02:32:35;100412.06;;;18.11;89.23
10460;BME280;54412;51.206;6.888;2023-07-31T02:35:00;100404.09;;;18.00;90.08
10460;BME280;54412;51.206;6.888;2023-07-31T02:37:26;100411.47;;;18.08;89.25
10460;BME280;54412;51.206;6.888;2023-07-31T02:39:54;100394.38;;;17.99;90.39
10460;BME280;54412;51.206;6.888;2023-07-31T02:42:20;100394.25;;;18.21;90.14
10460;BME280;54412;51.206;6.888;2023-07-31T02:44:45;100392.44;;;18.22;89.44
10460;BME280;54412;51.206;6.888;2023-07-31T02:47:11;100399.34;;;18.24;89.31
10460;BME280;54412;51.206;6.888;2023-07-31T02:49:37;100381.19;;;18.18;90.17
10460;BME280;54412;51.206;6.888;2023-07-31T02:52:03;100384.00;;;18.17;89.65
10460;BME280;54412;51.206;6.888;2023-07-31T02:54:28;100382.22;;;18.27;89.92
10460;BME280;54412;51.206;6.888;2023-07-31T02:56:54;100384.25;;;18.34;89.55
10460;BME280;54412;51.206;6.888;2023-07-31T02:59:20;100387.41;;;18.28;89.67
10460;BME280;54412;51.206;6.888;2023-07-31T03:01:46;100374.78;;;18.30;89.66
10460;BME280;54412;51.206;6.888;2023-07-31T03:04:11;100377.53;;;18.40;89.48
10460;BME280;54412;51.206;6.888;2023-07-31T03:06:37;100382.88;;;18.40;89.66
10460;BME280;54412;51.206;6.888;2023-07-31T03:09:03;100382.88;;;18.40;88.67
10460;BME280;54412;51.206;6.888;2023-07-31T03:11:28;100379.75;;;18.35;89.37
10460;BME280;54412;51.206;6.888;2023-07-31T03:13:54;100377.47;;;18.30;89.48
10460;BME280;54412;51.206;6.888;2023-07-31T03:16:20;100369.19;;;18.33;89.96
10460;BME280;54412;51.206;6.888;2023-07-31T03:18:45;100369.00;;;18.46;88.78
10460;BME280;54412;51.206;6.888;2023-07-31T03:21:12;100370.63;;;18.37;89.69
10460;BME280;54412;51.206;6.888;2023-07-31T03:23:38;100375.00;;;18.38;89.75
10460;BME280;54412;51.206;6.888;2023-07-31T03:26:07;100376.50;;;18.52;89.02
10460;BME280;54412;51.206;6.888;2023-07-31T03:28:33;100371.66;;;18.46;89.49
10460;BME280;54412;51.206;6.888;2023-07-31T03:30:59;100374.22;;;18.47;89.52
10460;BME280;54412;51.206;6.888;2023-07-31T03:33:25;100370.03;;;18.54;88.74
10460;BME280;54412;51.206;6.888;2023-07-31T03:35:51;100381.38;;;18.47;88.85
10460;BME280;54412;51.206;6.888;2023-07-31T03:38:18;100369.28;;;18.43;89.79
10460;BME280;54412;51.206;6.888;2023-07-31T03:40:43;100368.03;;;18.47;88.70
10460;BME280;54412;51.206;6.888;2023-07-31T03:43:09;100370.13;;;18.43;89.59
10460;BME280;54412;51.206;6.888;2023-07-31T03:45:35;100370.94;;;18.44;88.73
10460;BME280;54412;51.206;6.888;2023-07-31T03:48:01;100358.59;;;18.43;88.92
10460;BME280;54412;51.206;6.888;2023-07-31T03:50:26;100358.50;;;18.33;88.41
10460;BME280;54412;51.206;6.888;2023-07-31T03:52:52;100351.78;;;18.39;89.14
10460;BME280;54412;51.206;6.888;2023-07-31T03:55:18;100356.53;;;18.35;89.02
10460;BME280;54412;51.206;6.888;2023-07-31T03:57:44;100356.38;;;18.27;90.06
10460;BME280;54412;51.206;6.888;2023-07-31T04:00:10;100350.44;;;18.44;89.00
10460;BME280;54412;51.206;6.888;2023-07-31T04:02:36;100352.31;;;18.53;88.75
10460;BME280;54412;51.206;6.888;2023-07-31T04:05:02;100347.25;;;18.50;89.17
10460;BME280;54412;51.206;6.888;2023-07-31T04:07:27;100349.78;;;18.52;89.30
10460;BME280;54412;51.206;6.888;2023-07-31T04:09:53;100344.00;;;18.47;89.33
10460;BME280;54412;51.206;6.888;2023-07-31T04:12:19;100347.00;;;18.33;90.05
10460;BME280;54412;51.206;6.888;2023-07-31T04:14:44;100341.50;;;18.34;90.07
10460;BME280;54412;51.206;6.888;2023-07-31T04:17:10;100350.59;;;18.43;89.91
10460;BME280;54412;51.206;6.888;2023-07-31T04:19:35;100348.75;;;18.43;90.24
10460;BME280;54412;51.206;6.888;2023-07-31T04:22:01;100344.97;;;18.46;90.63
10460;BME280;54412;51.206;6.888;2023-07-31T04:24:27;100341.91;;;18.50;90.70
10460;BME280;54412;51.206;6.888;2023-07-31T04:26:53;100339.75;;;18.44;91.90
10460;BME280;54412;51.206;6.888;2023-07-31T04:29:19;100336.63;;;18.39;91.82
10460;BME280;54412;51.206;6.888;2023-07-31T04:31:45;100328.38;;;18.42;91.23
10460;BME280;54412;51.206;6.888;2023-07-31T04:34:11;100331.22;;;18.50;91.36
10460;BME280;54412;51.206;6.888;2023-07-31T04:36:37;100328.50;;;18.41;91.78
10460;BME280;54412;51.206;6.888;2023-07-31T04:39:03;100326.75;;;18.51;91.88
10460;BME280;54412;51.206;6.888;2023-07-31T04:41:29;100317.00;;;18.50;91.33
10460;BME280;54412;51.206;6.888;2023-07-31T04:43:55;100325.75;;;18.52;91.56
10460;BME280;54412;51.206;6.888;2023-07-31T04:46:20;100320.25;;;18.53;92.05
10460;BME280;54412;51.206;6.888;2023-07-31T04:48:46;100316.16;;;18.49;92.16
10460;BME280;54412;51.206;6.888;2023-07-31T04:51:12;100326.41;;;18.44;93.21
10460;BME280;54412;51.206;6.888;2023-07-31T04:53:37;100323.88;;;18.43;92.55
10460;BME280;54412;51.206;6.888;2023-07-31T04:56:03;100323.38;;;18.58;91.36
10460;BME280;54412;51.206;6.888;2023-07-31T04:58:29;100316.88;;;18.51;92.66
10460;BME280;54412;51.206;6.888;2023-07-31T05:00:55;100309.66;;;18.42;93.03
10460;BME280;54412;51.206;6.888;2023-07-31T05:03:20;100290.31;;;18.50;92.43
10460;BME280;54412;51.206;6.888;2023-07-31T05:05:46;100292.03;;;18.60;90.77
10460;BME280;54412;51.206;6.888;2023-07-31T05:08:12;100290.31;;;18.50;92.12
10460;BME280;54412;51.206;6.888;2023-07-31T05:10:37;100292.69;;;18.53;91.17
10460;BME280;54412;51.206;6.888;2023-07-31T05:13:03;100295.84;;;18.37;92.58
10460;BME280;54412;51.206;6.888;2023-07-31T05:15:29;100287.47;;;18.42;92.80
10460;BME280;54412;51.206;6.888;2023-07-31T05:17:55;100279.19;;;18.45;91.63
10460;BME280;54412;51.206;6.888;2023-07-31T05:20:21;100278.91;;;18.48;91.75
10460;BME280;54412;51.206;6.888;2023-07-31T05:22:47;100276.97;;;18.50;92.19
10460;BME280;54412;51.206;6.888;2023-07-31T05:25:13;100274.75;;;18.64;91.39
10460;BME280;54412;51.206;6.888;2023-07-31T05:27:38;100279.00;;;18.76;90.31
10460;BME280;54412;51.206;6.888;2023-07-31T05:30:05;100284.19;;;18.68;90.74
10460;BME280;54412;51.206;6.888;2023-07-31T05:32:31;100267.59;;;18.74;90.50
10460;BME280;54412;51.206;6.888;2023-07-31T05:34:57;100264.94;;;18.74;90.66
10460;BME280;54412;51.206;6.888;2023-07-31T05:37:23;100268.34;;;18.86;89.79
10460;BME280;54412;51.206;6.888;2023-07-31T05:39:49;100264.81;;;18.86;89.64
10460;BME280;54412;51.206;6.888;2023-07-31T05:42:14;100257.06;;;18.63;90.63
10460;BME280;54412;51.206;6.888;2023-07-31T05:44:40;100240.06;;;18.74;89.74
10460;BME280;54412;51.206;6.888;2023-07-31T05:47:06;100240.88;;;18.65;90.73
10460;BME280;54412;51.206;6.888;2023-07-31T05:49:31;100236.38;;;18.65;90.08
10460;BME280;54412;51.206;6.888;2023-07-31T05:51:57;100241.44;;;18.68;89.06
10460;BME280;54412;51.206;6.888;2023-07-31T05:54:23;100247.38;;;18.72;89.36
10460;BME280;54412;51.206;6.888;2023-07-31T05:56:48;100247.66;;;18.69;88.96
10460;BME280;54412;51.206;6.888;2023-07-31T05:59:14;100238.50;;;18.71;89.63
10460;BME280;54412;51.206;6.888;2023-07-31T06:01:40;100247.69;;;18.88;88.42
10460;BME280;54412;51.206;6.888;2023-07-31T06:04:05;100245.97;;;18.87;87.87
10460;BME280;54412;51.206;6.888;2023-07-31T06:06:31;100243.91;;;18.91;87.56
10460;BME280;54412;51.206;6.888;2023-07-31T06:08:57;100240.22;;;18.92;86.91
10460;BME280;54412;51.206;6.888;2023-07-31T06:11:23;100240.88;;;18.74;87.92
10460;BME280;54412;51.206;6.888;2023-07-31T06:13:48;100248.47;;;18.69;88.96
10460;BME280;54412;51.206;6.888;2023-07-31T06:16:15;100255.94;;;18.75;89.13
10460;BME280;54412;51.206;6.888;2023-07-31T06:18:41;100267.75;;;18.63;90.23
10460;BME280;54412;51.206;6.888;2023-07-31T06:21:08;100251.13;;;18.60;91.51
10460;BME280;54412;51.206;6.888;2023-07-31T06:23:34;100243.38;;;18.57;92.31
10460;BME280;54412;51.206;6.888;2023-07-31T06:25:59;100247.03;;;18.56;92.21
10460;BME280;54412;51.206;6.888;2023-07-31T06:28:29;100237.19;;;18.56;92.48
10460;BME280;54412;51.206;6.888;2023-07-31T06:30:56;100245.34;;;18.45;94.22
10460;BME280;54412;51.206;6.888;2023-07-31T06:33:21;100237.31;;;18.55;94.03
10460;BME280;54412;51.206;6.888;2023-07-31T06:35:47;100237.44;;;18.44;95.11
10460;BME280;54412;51.206;6.888;2023-07-31T06:38:12;100244.22;;;18.57;95.60
10460;BME280;54412;51.206;6.888;2023-07-31T06:40:38;100243.63;;;18.44;95.57
10460;BME280;54412;51.206;6.888;2023-07-31T06:43:05;100241.47;;;18.38;97.25
10460;BME280;54412;51.206;6.888;2023-07-31T06:45:37;100250.69;;;18.55;96.86
10460;BME280;54412;51.206;6.888;2023-07-31T06:48:03;100246.47;;;18.52;96.13
10460;BME280;54412;51.206;6.888;2023-07-31T06:50:33;100241.97;;;18.53;96.58
10460;BME280;54412;51.206;6.888;2023-07-31T06:52:59;100237.19;;;18.56;95.29
10460;BME280;54412;51.206;6.888;2023-07-31T06:55:25;100233.09;;;18.43;97.77
10460;BME280;54412;51.206;6.888;2023-07-31T06:57:54;100237.47;;;18.53;96.34
10460;BME280;54412;51.206;6.888;2023-07-31T07:00:22;100238.47;;;18.52;97.13
10460;BME280;54412;51.206;6.888;2023-07-31T07:02:48;100237.59;;;18.52;95.92
10460;BME280;54412;51.206;6.888;2023-07-31T07:05:15;100238.72;;;18.49;96.41
10460;BME280;54412;51.206;6.888;2023-07-31T07:07:41;100239.03;;;18.65;95.51
10460;BME280;54412;51.206;6.888;2023-07-31T07:10:08;100242.66;;;18.55;94.58
10460;BME280;54412;51.206;6.888;2023-07-31T07:12:34;100242.94;;;18.52;96.36
10460;BME280;54412;51.206;6.888;2023-07-31T07:15:00;100228.38;;;18.35;96.46
10460;BME280;54412;51.206;6.888;2023-07-31T07:17:28;100240.00;;;18.25;96.84
10460;BME280;54412;51.206;6.888;2023-07-31T07:19:56;100234.00;;;18.32;97.68
10460;BME280;54412;51.206;6.888;2023-07-31T07:22:23;100229.22;;;18.36;98.04
10460;BME280;54412;51.206;6.888;2023-07-31T07:24:49;100228.97;;;18.39;97.40
10460;BME280;54412;51.206;6.888;2023-07-31T07:27:15;100223.25;;;18.43;97.63
10460;BME280;54412;51.206;6.888;2023-07-31T07:29:41;100230.88;;;18.57;97.10
10460;BME280;54412;51.206;6.888;2023-07-31T07:32:07;100225.78;;;18.45;96.87
10460;BME280;54412;51.206;6.888;2023-07-31T07:34:32;100234.75;;;18.44;96.67
10460;BME280;54412;51.206;6.888;2023-07-31T07:36:58;100230.22;;;18.35;97.33
10460;BME280;54412;51.206;6.888;2023-07-31T07:39:24;100221.69;;;18.41;97.82
10460;BME280;54412;51.206;6.888;2023-07-31T07:41:50;100219.97;;;18.40;96.00
10460;BME280;54412;51.206;6.888;2023-07-31T07:44:16;100229.22;;;18.36;99.00
10460;BME280;54412;51.206;6.888;2023-07-31T07:46:42;100226.56;;;18.36;98.95
10460;BME280;54412;51.206;6.888;2023-07-31T07:49:07;100231.91;;;18.36;99.35
10460;BME280;54412;51.206;6.888;2023-07-31T07:51:33;100230.09;;;18.36;100.00
10460;BME280;54412;51.206;6.888;2023-07-31T07:53:59;100238.16;;;18.46;100.00
10460;BME280;54412;51.206;6.888;2023-07-31T07:56:26;100226.28;;;18.29;100.00
10460;BME280;54412;51.206;6.888;2023-07-31T07:58:53;100225.69;;;18.26;100.00
10460;BME280;54412;51.206;6.888;2023-07-31T08:01:19;100224.19;;;18.33;100.00
10460;BME280;54412;51.206;6.888;2023-07-31T08:03:46;100229.38;;;18.34;100.00
10460;BME280;54412;51.206;6.888;2023-07-31T08:06:12;100222.69;;;18.19;100.00
10460;BME280;54412;51.206;6.888;2023-07-31T08:08:38;100219.75;;;18.13;100.00
10460;BME280;54412;51.206;6.888;2023-07-31T08:11:04;100216.66;;;18.17;100.00
10460;BME280;54412;51.206;6.888;2023-07-31T08:13:30;100219.03;;;18.11;100.00
10460;BME280;54412;51.206;6.888;2023-07-31T08:15:56;100216.78;;;18.16;100.00
10460;BME280;54412;51.206;6.888;2023-07-31T08:18:22;100208.63;;;18.08;99.78
10460;BME280;54412;51.206;6.888;2023-07-31T08:20:48;100211.97;;;18.10;100.00
10460;BME280;54412;51.206;6.888;2023-07-31T08:23:13;100210.16;;;18.10;100.00
10460;BME280;54412;51.206;6.888;2023-07-31T08:25:39;100207.50;;;18.10;100.00
10460;BME280;54412;51.206;6.888;2023-07-31T08:28:06;100195.16;;;18.19;99.75
10460;BME280;54412;51.206;6.888;2023-07-31T08:30:32;100194.34;;;18.18;100.00
10460;BME280;54412;51.206;6.888;2023-07-31T08:33:01;100186.72;;;18.14;100.00
10460;BME280;54412;51.206;6.888;2023-07-31T08:35:27;100193.91;;;18.13;100.00
10460;BME280;54412;51.206;6.888;2023-07-31T08:37:55;100192.78;;;18.16;100.00
10460;BME280;54412;51.206;6.888;2023-07-31T08:40:21;100187.97;;;18.10;99.17
10460;BME280;54412;51.206;6.888;2023-07-31T08:42:53;100188.09;;;18.08;99.22
10460;BME280;54412;51.206;6.888;2023-07-31T08:45:20;100195.28;;;18.17;98.35
10460;BME280;54412;51.206;6.888;2023-07-31T08:47:48;100185.66;;;18.26;99.33
10460;BME280;54412;51.206;6.888;2023-07-31T08:50:17;100184.25;;;18.31;98.99
10460;BME280;54412;51.206;6.888;2023-07-31T08:52:45;100193.78;;;18.24;98.67
10460;BME280;54412;51.206;6.888;2023-07-31T08:55:11;100189.44;;;18.23;98.55
10460;BME280;54412;51.206;6.888;2023-07-31T08:57:38;100184.63;;;18.17;99.07
10460;BME280;54412;51.206;6.888;2023-07-31T09:00:07;100186.72;;;18.14;99.87
10460;BME280;54412;51.206;6.888;2023-07-31T09:02:48;100181.09;;;18.07;99.89
10460;BME280;54412;51.206;6.888;2023-07-31T09:05:18;100182.66;;;18.19;98.53
10460;BME280;54412;51.206;6.888;2023-07-31T09:07:47;100186.19;;;18.20;100.00
10460;BME280;54412;51.206;6.888;2023-07-31T09:10:15;100192.09;;;18.23;99.50
10460;BME280;54412;51.206;6.888;2023-07-31T09:12:41;100191.47;;;18.10;99.52
10460;BME280;54412;51.206;6.888;2023-07-31T09:15:07;100197.16;;;18.17;98.90
10460;BME280;54412;51.206;6.888;2023-07-31T09:17:36;100205.44;;;18.23;99.41
10460;BME280;54412;51.206;6.888;2023-07-31T09:20:20;100197.56;;;18.22;100.00
10460;BME280;54412;51.206;6.888;2023-07-31T09:22:48;100192.03;;;18.04;100.00
10460;BME280;54412;51.206;6.888;2023-07-31T09:25:25;100190.13;;;18.25;100.00
10460;BME280;54412;51.206;6.888;2023-07-31T09:28:03;100186.28;;;18.09;100.00
10460;BME280;54412;51.206;6.888;2023-07-31T09:30:29;100187.16;;;18.19;100.00
10460;BME280;54412;51.206;6.888;2023-07-31T09:33:05;100187.44;;;18.16;100.00
10460;BME280;54412;51.206;6.888;2023-07-31T09:35:35;100186.00;;;18.12;100.00
10460;BME280;54412;51.206;6.888;2023-07-31T09:38:05;100182.53;;;18.21;100.00
10460;BME280;54412;51.206;6.888;2023-07-31T09:40:33;100181.84;;;18.28;100.00
10460;BME280;54412;51.206;6.888;2023-07-31T09:43:04;100173.22;;;18.15;100.00
10460;BME280;54412;51.206;6.888;2023-07-31T09:45:35;100172.94;;;18.09;100.00
10460;BME280;54412;51.206;6.888;2023-07-31T09:48:17;100171.13;;;18.09;100.00
10460;BME280;54412;51.206;6.888;2023-07-31T09:50:46;100172.09;;;18.08;100.00
10460;BME280;54412;51.206;6.888;2023-07-31T09:53:13;100168.69;;;17.97;100.00
10460;BME280;54412;51.206;6.888;2023-07-31T09:55:41;100173.06;;;18.07;100.00
10460;BME280;54412;51.206;6.888;2023-07-31T09:58:10;100165.22;;;18.15;100.00
10460;BME280;54412;51.206;6.888;2023-07-31T10:00:37;100170.88;;;18.22;100.00
10460;BME280;54412;51.206;6.888;2023-07-31T10:03:10;100170.56;;;18.15;100.00
10460;BME280;54412;51.206;6.888;2023-07-31T10:05:50;100161.16;;;18.21;100.00
10460;BME280;54412;51.206;6.888;2023-07-31T10:08:20;100170.75;;;18.23;100.00
10460;BME280;54412;51.206;6.888;2023-07-31T10:10:47;100163.84;;;18.21;100.00
10460;BME280;54412;51.206;6.888;2023-07-31T10:13:14;100154.44;;;18.17;100.00
10460;BME280;54412;51.206;6.888;2023-07-31T10:15:41;100161.44;;;18.18;100.00
10460;BME280;54412;51.206;6.888;2023-07-31T10:18:09;100167.06;;;18.15;100.00
10460;BME280;54412;51.206;6.888;2023-07-31T10:20:36;100167.66;;;18.28;100.00
10460;BME280;54412;51.206;6.888;2023-07-31T10:23:02;100165.31;;;18.34;100.00
10460;BME280;54412;51.206;6.888;2023-07-31T10:25:30;100162.03;;;18.21;100.00
10460;BME280;54412;51.206;6.888;2023-07-31T10:27:57;100165.69;;;18.20;100.00
10460;BME280;54412;51.206;6.888;2023-07-31T10:30:29;100162.31;;;18.28;100.00
10460;BME280;54412;51.206;6.888;2023-07-31T10:32:56;100156.88;;;18.39;100.00
10460;BME280;54412;51.206;6.888;2023-07-31T10:35:23;100149.63;;;18.50;100.00
10460;BME280;54412;51.206;6.888;2023-07-31T10:37:48;100161.28;;;18.49;100.00
10460;BME280;54412;51.206;6.888;2023-07-31T10:40:27;100147.38;;;18.55;100.00
10460;BME280;54412;51.206;6.888;2023-07-31T10:42:55;100147.81;;;18.51;100.00
10460;BME280;54412;51.206;6.888;2023-07-31T10:45:37;100151.19;;;18.72;100.00
10460;BME280;54412;51.206;6.888;2023-07-31T10:50:33;100140.78;;;18.88;100.00
10460;BME280;54412;51.206;6.888;2023-07-31T10:53:02;100146.41;;;18.95;100.00
10460;BME280;54412;51.206;6.888;2023-07-31T10:55:38;100134.72;;;19.05;100.00
10460;BME280;54412;51.206;6.888;2023-07-31T10:58:15;100140.22;;;19.04;99.18
10460;BME280;54412;51.206;6.888;2023-07-31T11:00:44;100141.06;;;19.04;100.00
10460;BME280;54412;51.206;6.888;2023-07-31T11:03:17;100132.47;;;19.01;98.82
10460;BME280;54412;51.206;6.888;2023-07-31T11:08:31;100141.22;;;18.74;99.76
10460;BME280;54412;51.206;6.888;2023-07-31T11:11:08;100143.75;;;18.85;98.92
10460;BME280;54412;51.206;6.888;2023-07-31T11:13:42;100134.44;;;18.89;99.17
10460;BME280;54412;51.206;6.888;2023-07-31T11:16:10;100134.03;;;18.84;97.07
10460;BME280;54412;51.206;6.888;2023-07-31T11:18:40;100122.34;;;18.95;98.30
10460;BME280;54412;51.206;6.888;2023-07-31T11:21:06;100129.94;;;18.90;97.07
10460;BME280;54412;51.206;6.888;2023-07-31T11:23:32;100140.78;;;18.88;95.89
10460;BME280;54412;51.206;6.888;2023-07-31T11:26:01;100138.53;;;18.84;97.61
10460;BME280;54412;51.206;6.888;2023-07-31T11:28:32;100140.50;;;19.01;97.97
10460;BME280;54412;51.206;6.888;2023-07-31T11:31:00;100139.50;;;19.02;96.85
10460;BME280;54412;51.206;6.888;2023-07-31T11:33:26;100133.59;;;19.08;97.66
10460;BME280;54412;51.206;6.888;2023-07-31T11:35:52;100125.13;;;19.22;96.71
10460;BME280;54412;51.206;6.888;2023-07-31T11:38:28;100116.28;;;19.31;97.06
10460;BME280;54412;51.206;6.888;2023-07-31T11:40:56;100118.94;;;19.31;95.41
10460;BME280;54412;51.206;6.888;2023-07-31T11:43:24;100108.34;;;19.48;95.02
10460;BME280;54412;51.206;6.888;2023-07-31T11:45:58;100104.44;;;19.24;94.86
10460;BME280;54412;51.206;6.888;2023-07-31T11:48:33;100119.38;;;19.17;92.99
10460;BME280;54412;51.206;6.888;2023-07-31T11:51:11;100126.38;;;19.27;92.69
10460;BME280;54412;51.206;6.888;2023-07-31T11:53:45;100122.19;;;19.25;92.82
10460;BME280;54412;51.206;6.888;2023-07-31T11:56:17;100123.88;;;19.16;93.42
10460;BME280;54412;51.206;6.888;2023-07-31T11:58:51;100114.84;;;19.27;94.83
10460;BME280;54412;51.206;6.888;2023-07-31T12:01:20;100111.63;;;19.33;93.30
10460;BME280;54412;51.206;6.888;2023-07-31T12:03:47;100112.63;;;19.22;93.80
10460;BME280;54412;51.206;6.888;2023-07-31T12:06:13;100112.22;;;19.17;93.01
10460;BME280;54412;51.206;6.888;2023-07-31T12:08:39;100103.59;;;19.23;92.91
10460;BME280;54412;51.206;6.888;2023-07-31T12:11:08;100106.56;;;19.30;93.07
10460;BME280;54412;51.206;6.888;2023-07-31T12:13:35;100100.63;;;19.36;93.78
10460;BME280;54412;51.206;6.888;2023-07-31T12:16:03;100097.41;;;19.42;92.93
10460;BME280;54412;51.206;6.888;2023-07-31T12:18:36;100104.41;;;19.43;91.82
10460;BME280;54412;51.206;6.888;2023-07-31T12:21:07;100105.97;;;19.36;91.85
10460;BME280;54412;51.206;6.888;2023-07-31T12:23:36;100108.09;;;19.32;93.10
10460;BME280;54412;51.206;6.888;2023-07-31T12:26:14;100100.06;;;19.42;93.25
10460;BME280;54412;51.206;6.888;2023-07-31T12:28:44;100092.75;;;19.44;93.66
10460;BME280;54412;51.206;6.888;2023-07-31T12:31:19;100100.78;;;19.34;94.26
10460;BME280;54412;51.206;6.888;2023-07-31T12:33:48;100098.81;;;19.36;93.01
10460;BME280;54412;51.206;6.888;2023-07-31T12:36:21;100093.72;;;19.43;93.29
10460;BME280;54412;51.206;6.888;2023-07-31T12:38:47;100104.53;;;19.51;93.14
10460;BME280;54412;51.206;6.888;2023-07-31T12:41:13;100091.78;;;19.35;92.04
10460;BME280;54412;51.206;6.888;2023-07-31T12:43:41;100100.50;;;19.18;93.78
10460;BME280;54412;51.206;6.888;2023-07-31T12:46:08;100111.34;;;19.26;94.41
10460;BME280;54412;51.206;6.888;2023-07-31T12:48:35;100089.53;;;19.21;94.59
10460;BME280;54412;51.206;6.888;2023-07-31T12:51:01;100097.53;;;19.40;93.93
10460;BME280;54412;51.206;6.888;2023-07-31T12:53:28;100085.44;;;19.36;93.63
10460;BME280;54412;51.206;6.888;2023-07-31T12:55:57;100079.94;;;19.47;92.11
10460;BME280;54412;51.206;6.888;2023-07-31T12:58:23;100086.72;;;19.32;91.72